Time;durP1;ratioP1;P1;durP2;ratioP2;P2;SDS_P1;SDS_P2;PMS_P1;PMS_P2;Temp;Humidity;BMP_temperature;BMP_pressure;BME280_temperature;BME280_humidity;BME280_pressure;Samples;Min_cycle;Max_cycle;Signal;HPM_P1;HPM_P2
2023/10/29 00:00:31;;;;;;;5.70;3.00;;;;;;;7.07;100.00;100565.73;107327;1244;62538;-70
2023/10/29 00:03:20;;;;;;;5.40;3.10;;;;;;;7.04;100.00;100566.79;107367;1242;57602;-71
2023/10/29 00:05:50;;;;;;;5.90;3.30;;;;;;;7.02;100.00;100565.31;107350;1242;61371;-72
2023/10/29 00:08:19;;;;;;;8.10;3.20;;;;;;;6.95;100.00;100561.42;107385;1254;73875;-71
2023/10/29 00:10:48;;;;;;;5.50;2.80;;;;;;;6.93;100.00;100567.78;107177;1247;61403;-74
2023/10/29 00:13:17;;;;;;;6.60;3.00;;;;;;;6.89;100.00;100574.09;107390;1244;59632;-71
2023/10/29 00:15:46;;;;;;;7.00;3.10;;;;;;;6.86;100.00;100576.52;107360;1244;73740;-71
2023/10/29 00:18:16;;;;;;;5.10;3.00;;;;;;;6.85;100.00;100574.00;107379;1245;58983;-71
2023/10/29 00:20:46;;;;;;;6.50;3.10;;;;;;;7.03;100.00;100571.17;107441;1255;57382;-71
2023/10/29 00:23:15;;;;;;;6.60;3.20;;;;;;;7.20;100.00;100570.84;107437;1244;61953;-71
2023/10/29 00:25:44;;;;;;;4.90;2.80;;;;;;;7.25;100.00;100570.70;107410;1241;71950;-71
2023/10/29 00:28:13;;;;;;;5.80;3.10;;;;;;;7.12;100.00;100565.27;107463;1241;71034;-72
2023/10/29 00:30:42;;;;;;;9.70;3.40;;;;;;;7.12;100.00;100561.42;107298;1244;74310;-73
2023/10/29 00:33:11;;;;;;;5.90;3.50;;;;;;;7.07;100.00;100565.38;107356;1244;59006;-71
2023/10/29 00:35:40;;;;;;;7.90;3.80;;;;;;;7.09;100.00;100570.46;107287;1247;60463;-72
2023/10/29 00:38:09;;;;;;;5.80;3.30;;;;;;;7.06;100.00;100568.58;107389;1241;72917;-71
2023/10/29 00:40:39;;;;;;;7.50;3.40;;;;;;;7.05;100.00;100571.94;107314;1243;71920;-73
2023/10/29 00:43:14;;;;;;;7.30;3.50;;;;;;;7.00;100.00;100580.02;107293;1254;59535;-72
2023/10/29 00:45:47;;;;;;;7.00;3.70;;;;;;;7.04;100.00;100584.08;107353;1244;73665;-72
2023/10/29 00:48:16;;;;;;;6.10;3.30;;;;;;;7.11;100.00;100590.93;107410;1244;57311;-72
2023/10/29 00:50:46;;;;;;;7.20;3.30;;;;;;;7.19;100.00;100584.60;107403;1251;58993;-73
2023/10/29 00:53:15;;;;;;;8.20;4.00;;;;;;;7.29;100.00;100580.54;107575;1252;62804;-71
2023/10/29 00:55:44;;;;;;;5.80;3.30;;;;;;;7.23;100.00;100583.48;108372;1244;61897;-70
2023/10/29 00:58:16;;;;;;;8.80;3.80;;;;;;;7.17;100.00;100583.68;108691;1241;59448;-72
2023/10/29 01:00:46;;;;;;;11.00;3.80;;;;;;;7.15;100.00;100585.18;108259;1245;72978;-71
2023/10/29 01:03:18;;;;;;;6.80;4.10;;;;;;;7.12;100.00;100581.86;108551;1245;57241;-71
2023/10/29 01:05:49;;;;;;;10.80;4.50;;;;;;;7.21;100.00;100582.21;108637;1241;60365;-68
2023/10/29 01:08:20;;;;;;;9.50;4.50;;;;;;;7.13;100.00;100581.45;108576;1245;62865;-69
2023/10/29 01:10:49;;;;;;;7.30;4.30;;;;;;;7.05;100.00;100589.05;108513;1244;61126;-69
2023/10/29 01:13:18;;;;;;;7.00;3.70;;;;;;;6.97;100.00;100595.08;108398;1245;59452;-69
2023/10/29 01:15:48;;;;;;;6.40;3.20;;;;;;;6.89;100.00;100591.90;108229;1245;72408;-70
2023/10/29 01:18:17;;;;;;;9.20;3.60;;;;;;;6.89;100.00;100592.60;107706;1245;61503;-72
2023/10/29 01:20:47;;;;;;;6.80;3.60;;;;;;;6.84;100.00;100594.79;107375;1255;61292;-71
2023/10/29 01:23:17;;;;;;;5.10;3.20;;;;;;;6.78;100.00;100590.62;107377;1255;72695;-71
2023/10/29 01:25:47;;;;;;;5.20;3.10;;;;;;;6.86;100.00;100587.21;107391;1241;72228;-72
2023/10/29 01:28:16;;;;;;;5.90;3.00;;;;;;;6.99;100.00;100590.81;107350;1241;70718;-72
2023/10/29 01:30:45;;;;;;;8.20;3.50;;;;;;;7.11;100.00;100596.83;107426;1245;74142;-71
2023/10/29 01:33:14;;;;;;;5.10;3.10;;;;;;;7.02;100.00;100601.36;107201;1244;60380;-72
2023/10/29 01:35:43;;;;;;;6.50;3.40;;;;;;;6.96;100.00;100602.05;107159;1252;59116;-71
2023/10/29 01:38:12;;;;;;;6.20;3.30;;;;;;;6.87;100.00;100601.39;107154;1255;62329;-69
2023/10/29 01:40:41;;;;;;;6.30;3.50;;;;;;;6.78;100.00;100609.02;107295;1246;62100;-72
2023/10/29 01:43:10;;;;;;;7.70;3.40;;;;;;;6.74;100.00;100609.25;107105;1246;60400;-71
2023/10/29 01:45:39;;;;;;;5.10;3.30;;;;;;;6.63;100.00;100614.50;107249;1255;71400;-73
2023/10/29 01:48:08;;;;;;;6.20;3.30;;;;;;;6.61;100.00;100619.30;107323;1246;59014;-73
2023/10/29 01:50:37;;;;;;;8.60;3.60;;;;;;;6.58;100.00;100627.81;107306;1245;59121;-72
2023/10/29 01:53:06;;;;;;;7.10;3.10;;;;;;;6.56;100.00;100626.34;107262;1244;72829;-72
2023/10/29 01:55:39;;;;;;;5.30;2.60;;;;;;;6.54;100.00;100627.16;107252;1255;63658;-72
2023/10/29 01:58:07;;;;;;;3.80;2.40;;;;;;;6.57;100.00;100628.90;107227;1255;70211;-73
2023/10/29 02:00:39;;;;;;;4.10;2.30;;;;;;;6.58;100.00;100632.98;107280;1245;73934;-73
2023/10/29 02:03:07;;;;;;;5.70;2.60;;;;;;;6.60;100.00;100632.86;107132;1248;61832;-71
2023/10/29 02:05:37;;;;;;;5.40;2.50;;;;;;;6.59;100.00;100631.70;107310;1245;57503;-71
2023/10/29 02:08:06;;;;;;;5.70;2.30;;;;;;;6.55;100.00;100634.22;107337;1248;62204;-71
2023/10/29 02:10:35;;;;;;;5.30;2.60;;;;;;;6.48;100.00;100638.91;107333;1244;62279;-71
2023/10/29 02:13:04;;;;;;;4.50;2.50;;;;;;;6.46;100.00;100646.80;107336;1252;61273;-71
2023/10/29 02:15:33;;;;;;;4.10;2.60;;;;;;;6.44;100.00;100652.46;107285;1255;62460;-71
2023/10/29 02:18:02;;;;;;;4.80;2.50;;;;;;;6.38;100.00;100658.00;107346;1246;58900;-69
2023/10/29 02:20:31;;;;;;;5.10;2.70;;;;;;;6.35;100.00;100668.88;107323;1241;60973;-71
2023/10/29 02:23:01;;;;;;;3.80;2.40;;;;;;;6.34;100.00;100670.47;107332;1247;73582;-71
2023/10/29 02:25:30;;;;;;;5.90;2.40;;;;;;;6.38;100.00;100676.84;107362;1244;71407;-71
2023/10/29 02:27:59;;;;;;;3.70;2.40;;;;;;;6.45;100.00;100679.43;107359;1244;70794;-71
2023/10/29 02:30:28;;;;;;;4.50;2.60;;;;;;;6.42;100.00;100681.14;107315;1252;62490;-71
2023/10/29 02:32:57;;;;;;;5.70;2.50;;;;;;;6.52;100.00;100679.38;107356;1241;58992;-71
2023/10/29 02:35:26;;;;;;;5.90;2.80;;;;;;;6.64;100.00;100678.02;107423;1255;58461;-71
2023/10/29 02:37:55;;;;;;;4.70;2.60;;;;;;;6.78;100.00;100683.08;107430;1244;62394;-71
2023/10/29 02:40:24;;;;;;;5.10;2.50;;;;;;;6.83;100.00;100686.08;107424;1251;62036;-71
2023/10/29 02:42:53;;;;;;;5.70;2.60;;;;;;;6.93;100.00;100687.80;107407;1251;59513;-71
2023/10/29 02:45:22;;;;;;;6.30;2.40;;;;;;;7.01;100.00;100695.76;107341;1244;73311;-71
2023/10/29 02:47:53;;;;;;;5.70;2.70;;;;;;;7.00;100.00;100699.46;107322;1244;62866;-72
2023/10/29 02:50:22;;;;;;;5.30;2.80;;;;;;;6.86;100.00;100699.23;107326;1244;59500;-70
2023/10/29 02:52:51;;;;;;;5.10;2.70;;;;;;;6.69;100.00;100708.37;107108;1255;72027;-70
2023/10/29 02:55:21;;;;;;;4.50;3.00;;;;;;;6.55;100.00;100707.39;107258;1245;61980;-72
2023/10/29 02:57:50;;;;;;;5.50;2.60;;;;;;;6.50;100.00;100707.67;107351;1244;59725;-71
2023/10/29 03:00:19;;;;;;;5.90;3.40;;;;;;;6.47;100.00;100710.44;107365;1245;63060;-71
2023/10/29 03:02:48;;;;;;;8.30;3.40;;;;;;;6.43;100.00;100713.96;107382;1244;61633;-74
2023/10/29 03:05:18;;;;;;;5.20;3.30;;;;;;;6.33;100.00;100718.45;107302;1245;60763;-72
2023/10/29 03:07:49;;;;;;;8.60;3.30;;;;;;;6.25;100.00;100716.83;107437;1251;73544;-71
2023/10/29 03:10:19;;;;;;;5.70;3.20;;;;;;;6.34;100.00;100714.45;107337;1241;72312;-70
2023/10/29 03:12:49;;;;;;;4.70;3.10;;;;;;;6.30;100.00;100715.16;107321;1246;60273;-70
2023/10/29 03:15:18;;;;;;;6.30;2.80;;;;;;;6.22;100.00;100710.11;107345;1255;62772;-70
2023/10/29 03:17:47;;;;;;;4.70;2.80;;;;;;;6.32;100.00;100703.34;107292;1252;58999;-72
2023/10/29 03:20:17;;;;;;;5.60;3.00;;;;;;;6.23;100.00;100701.40;107313;1255;60819;-70
2023/10/29 03:22:45;;;;;;;3.90;2.70;;;;;;;6.15;100.00;100702.35;107303;1244;73996;-71
2023/10/29 03:25:14;;;;;;;7.70;3.20;;;;;;;6.07;100.00;100713.48;107401;1242;72095;-71
2023/10/29 03:27:43;;;;;;;6.50;3.00;;;;;;;5.98;100.00;100721.03;107423;1245;70219;-71
2023/10/29 03:30:14;;;;;;;6.10;3.20;;;;;;;5.89;100.00;100722.38;107410;1244;74743;-71
2023/10/29 03:32:44;;;;;;;4.50;3.00;;;;;;;5.87;100.00;100715.91;107390;1242;62110;-69
2023/10/29 03:35:13;;;;;;;7.60;3.40;;;;;;;6.02;100.00;100711.49;107406;1242;58986;-71
2023/10/29 03:37:42;;;;;;;5.20;3.30;;;;;;;6.14;100.00;100716.77;107402;1244;63276;-71
2023/10/29 03:40:11;;;;;;;5.30;3.20;;;;;;;6.42;100.00;100721.46;107517;1244;61199;-71
2023/10/29 03:42:40;;;;;;;6.00;3.00;;;;;;;6.55;100.00;100716.58;107359;1245;59474;-74
2023/10/29 03:45:09;;;;;;;4.60;2.80;;;;;;;6.41;100.00;100716.32;107111;1255;62778;-71
2023/10/29 03:47:38;;;;;;;5.80;3.10;;;;;;;6.22;100.00;100714.38;107358;1247;57454;-72
2023/10/29 03:50:08;;;;;;;6.40;3.30;;;;;;;6.19;100.00;100716.48;107270;1245;59094;-71
2023/10/29 03:52:37;;;;;;;5.80;3.50;;;;;;;6.15;100.00;100719.80;107109;1255;62100;-71
2023/10/29 03:55:07;;;;;;;8.40;4.30;;;;;;;6.08;100.00;100728.83;107256;1245;61140;-71
2023/10/29 03:57:36;;;;;;;10.00;4.70;;;;;;;6.00;100.00;100730.98;107249;1245;59769;-71
2023/10/29 04:00:06;;;;;;;7.30;4.30;;;;;;;5.91;100.00;100738.15;107309;1255;62490;-70
2023/10/29 04:02:39;;;;;;;8.10;4.40;;;;;;;5.83;100.00;100741.14;107355;1251;59063;-72
2023/10/29 04:05:09;;;;;;;7.30;4.00;;;;;;;5.71;100.00;100742.50;107308;1244;61614;-71
2023/10/29 04:07:38;;;;;;;8.00;4.10;;;;;;;5.76;100.00;100740.85;107275;1255;72975;-73
2023/10/29 04:10:09;;;;;;;8.10;4.20;;;;;;;5.93;100.00;100737.73;107227;1245;74003;-71
2023/10/29 04:12:38;;;;;;;6.50;4.10;;;;;;;5.97;100.00;100736.65;107003;1241;69756;-72
2023/10/29 04:15:08;;;;;;;6.90;4.10;;;;;;;6.15;100.00;100730.19;107206;1244;65023;-71
2023/10/29 04:17:38;;;;;;;5.40;3.70;;;;;;;6.23;100.00;100728.67;107095;1244;59000;-71
2023/10/29 04:20:08;;;;;;;6.00;3.90;;;;;;;6.14;100.00;100729.20;107259;1244;60127;-70
2023/10/29 04:22:37;;;;;;;7.50;3.40;;;;;;;6.08;100.00;100735.92;107189;1244;63161;-71
2023/10/29 04:25:08;;;;;;;6.60;3.70;;;;;;;6.00;100.00;100749.13;107244;1255;70465;-70
2023/10/29 04:27:37;;;;;;;5.70;3.20;;;;;;;5.88;100.00;100753.89;107197;1244;59478;-72
2023/10/29 04:30:07;;;;;;;6.40;3.80;;;;;;;5.85;100.00;100755.73;107255;1244;62795;-71
2023/10/29 04:32:36;;;;;;;6.50;3.90;;;;;;;5.95;100.00;100757.68;107178;1244;59040;-71
2023/10/29 04:35:06;;;;;;;6.60;4.00;;;;;;;5.86;100.00;100762.96;107344;1242;58713;-70
2023/10/29 04:37:35;;;;;;;7.10;4.00;;;;;;;5.83;100.00;100756.88;107303;1246;72017;-72
2023/10/29 04:40:05;;;;;;;7.20;4.30;;;;;;;5.86;100.00;100758.96;107365;1244;73116;-71
2023/10/29 04:42:34;;;;;;;7.50;4.80;;;;;;;5.78;100.00;100763.90;107371;1245;70687;-72
2023/10/29 04:45:03;;;;;;;9.00;4.80;;;;;;;5.70;100.00;100770.02;107413;1241;73939;-71
2023/10/29 04:47:32;;;;;;;8.40;4.60;;;;;;;5.67;100.00;100769.62;107250;1244;59158;-72
2023/10/29 04:50:02;;;;;;;8.20;4.70;;;;;;;5.74;100.00;100771.01;107245;1255;61343;-71
2023/10/29 04:52:31;;;;;;;9.30;5.10;;;;;;;6.00;100.00;100782.80;107274;1245;73933;-71
2023/10/29 04:55:05;;;;;;;11.10;5.80;;;;;;;5.91;100.00;100789.70;107264;1241;72672;-71
2023/10/29 04:57:33;;;;;;;8.00;5.40;;;;;;;5.84;100.00;100791.74;107201;1241;70697;-72
2023/10/29 05:00:05;;;;;;;8.40;4.80;;;;;;;5.88;100.00;100794.85;107277;1244;73251;-71
2023/10/29 05:02:35;;;;;;;9.40;5.30;;;;;;;5.90;100.00;100795.25;107130;1250;60914;-71
2023/10/29 05:05:06;;;;;;;11.10;5.50;;;;;;;5.86;100.00;100798.89;107177;1241;61544;-71
2023/10/29 05:07:36;;;;;;;10.90;5.70;;;;;;;5.83;100.00;100797.14;107104;1255;73451;-71
2023/10/29 05:10:06;;;;;;;12.10;5.90;;;;;;;5.85;100.00;100806.92;107206;1255;71818;-71
2023/10/29 05:12:34;;;;;;;10.60;5.20;;;;;;;5.82;100.00;100817.10;107056;1245;70082;-72
2023/10/29 05:15:04;;;;;;;13.70;6.50;;;;;;;5.82;100.00;100812.25;107092;1244;74786;-72
2023/10/29 05:17:34;;;;;;;10.80;5.80;;;;;;;5.86;100.00;100813.43;107166;1245;57810;-70
2023/10/29 05:20:05;;;;;;;12.60;5.50;;;;;;;6.00;100.00;100817.21;107188;1244;61004;-70
2023/10/29 05:22:35;;;;;;;11.10;5.60;;;;;;;6.23;100.00;100816.20;107215;1241;74516;-71
2023/10/29 05:25:08;;;;;;;11.70;6.00;;;;;;;6.46;100.00;100823.50;107184;1241;72610;-70
2023/10/29 05:27:36;;;;;;;11.40;6.40;;;;;;;6.42;100.00;100826.48;107329;1255;69986;-70
2023/10/29 05:30:07;;;;;;;10.90;6.50;;;;;;;6.47;100.00;100832.23;107102;1244;74400;-71
2023/10/29 05:32:37;;;;;;;13.80;6.30;;;;;;;6.54;100.00;100831.70;107272;1244;59096;-72
2023/10/29 05:35:08;;;;;;;9.90;6.70;;;;;;;6.56;100.00;100833.63;106937;1248;58997;-71
2023/10/29 05:37:37;;;;;;;13.60;6.30;;;;;;;6.71;100.00;100835.79;107211;1241;72459;-70
2023/10/29 05:40:09;;;;;;;15.70;7.00;;;;;;;7.01;100.00;100839.02;107163;1251;71448;-71
2023/10/29 05:42:38;;;;;;;15.00;6.50;;;;;;;7.16;100.00;100835.21;107197;1244;59615;-71
2023/10/29 05:45:08;;;;;;;12.20;6.50;;;;;;;7.34;100.00;100839.38;107169;1245;63974;-71
2023/10/29 05:47:37;;;;;;;10.10;6.20;;;;;;;7.49;100.00;100841.48;107173;1241;61319;-71
2023/10/29 05:50:07;;;;;;;14.50;6.50;;;;;;;7.64;100.00;100843.73;107222;1241;59096;-71
2023/10/29 05:52:36;;;;;;;16.40;6.70;;;;;;;7.80;100.00;100852.00;107387;1245;73278;-72
2023/10/29 05:55:06;;;;;;;14.90;7.40;;;;;;;7.87;100.00;100862.33;107419;1241;72225;-71
2023/10/29 05:57:34;;;;;;;16.80;7.60;;;;;;;7.98;100.00;100866.37;107452;1255;71098;-71
2023/10/29 06:00:04;;;;;;;29.40;16.00;;;;;;;8.10;100.00;100875.36;107367;1252;73779;-72
2023/10/29 06:02:39;;;;;;;27.70;14.70;;;;;;;8.20;100.00;100878.05;107395;1244;59125;-71
2023/10/29 06:05:08;;;;;;;29.40;15.40;;;;;;;8.36;100.00;100877.34;107473;1250;61533;-70
2023/10/29 06:07:43;;;;;;;17.70;11.80;;;;;;;8.53;100.00;100875.76;107426;1242;74197;-71
2023/10/29 06:10:13;;;;;;;13.20;7.90;;;;;;;8.71;100.00;100876.75;107439;1245;62705;-71
2023/10/29 06:12:42;;;;;;;18.30;9.10;;;;;;;8.79;100.00;100881.43;107332;1245;59828;-71
2023/10/29 06:15:12;;;;;;;16.00;9.20;;;;;;;8.88;100.00;100884.86;107354;1245;62451;-72
2023/10/29 06:17:41;;;;;;;17.10;9.90;;;;;;;8.97;100.00;100881.89;107402;1244;57412;-70
2023/10/29 06:20:16;;;;;;;17.90;10.30;;;;;;;9.15;100.00;100882.83;107300;1245;61578;-71
2023/10/29 06:22:45;;;;;;;17.50;10.90;;;;;;;9.33;100.00;100886.72;107332;1248;73188;-71
2023/10/29 06:25:16;;;;;;;23.70;9.90;;;;;;;9.46;100.00;100889.02;107326;1244;72452;-71
2023/10/29 06:27:45;;;;;;;60.60;32.30;;;;;;;9.65;100.00;100890.58;107378;1244;59810;-71
2023/10/29 06:30:16;;;;;;;19.30;11.30;;;;;;;9.83;100.00;100887.95;107393;1244;63380;-71
2023/10/29 06:32:46;;;;;;;18.50;10.10;;;;;;;10.03;100.00;100890.30;107146;1251;58501;-71
2023/10/29 06:35:15;;;;;;;18.50;9.50;;;;;;;10.24;100.00;100893.08;107429;1244;59096;-72
2023/10/29 06:37:44;;;;;;;18.20;8.70;;;;;;;10.43;100.00;100894.20;107377;1255;62456;-71
2023/10/29 06:40:13;;;;;;;19.60;8.90;;;;;;;10.63;100.00;100901.91;107427;1245;70781;-72
2023/10/29 06:42:42;;;;;;;18.50;8.80;;;;;;;10.79;100.00;100903.73;107196;1248;59479;-71
2023/10/29 06:45:11;;;;;;;15.30;9.00;;;;;;;10.96;100.00;100904.59;107424;1245;62742;-75
2023/10/29 06:47:40;;;;;;;15.60;9.30;;;;;;;11.11;100.00;100900.02;107285;1246;59110;-72
2023/10/29 06:50:10;;;;;;;19.70;9.20;;;;;;;11.24;100.00;100896.66;107203;1245;59370;-71
2023/10/29 06:52:39;;;;;;;17.90;8.70;;;;;;;11.43;100.00;100889.22;107237;1241;63681;-71
2023/10/29 06:55:09;;;;;;;15.10;8.40;;;;;;;11.57;100.00;100890.80;107210;1244;60914;-71
2023/10/29 06:57:38;;;;;;;13.10;8.50;;;;;;;11.58;100.00;100900.67;107203;1244;70197;-72
2023/10/29 07:00:08;;;;;;;15.00;8.00;;;;;;;11.61;100.00;100900.79;107131;1244;73198;-71
2023/10/29 07:02:37;;;;;;;13.50;8.10;;;;;;;11.71;100.00;100902.65;107191;1244;58865;-72
2023/10/29 07:05:07;;;;;;;12.30;7.90;;;;;;;11.85;100.00;100901.77;107173;1248;57415;-72
2023/10/29 07:07:36;;;;;;;15.60;7.80;;;;;;;11.97;100.00;100899.40;107510;1251;61951;-72
2023/10/29 07:10:06;;;;;;;14.00;7.70;;;;;;;12.08;100.00;100901.84;107520;1241;61280;-72
2023/10/29 07:12:35;;;;;;;12.80;7.60;;;;;;;12.21;100.00;100898.22;107599;1238;60066;-72
2023/10/29 07:15:06;;;;;;;15.10;7.70;;;;;;;12.33;100.00;100903.44;107589;1241;72996;-72
2023/10/29 07:17:35;;;;;;;14.80;7.40;;;;;;;12.41;100.00;100906.82;107661;1238;61935;-71
2023/10/29 07:20:05;;;;;;;12.10;7.00;;;;;;;12.53;100.00;100908.70;107509;1241;59142;-71
2023/10/29 07:22:34;;;;;;;14.80;8.10;;;;;;;12.62;100.00;100913.21;107518;1244;72756;-71
2023/10/29 07:25:04;;;;;;;14.30;8.60;;;;;;;12.86;100.00;100908.04;107488;1241;72415;-71
2023/10/29 07:27:33;;;;;;;12.60;6.80;;;;;;;13.02;100.00;100913.29;107171;1242;473942;-72
2023/10/29 07:30:02;;;;;;;18.70;7.90;;;;;;;13.20;100.00;100919.55;107504;1240;73112;-73
2023/10/29 07:32:31;;;;;;;13.20;7.20;;;;;;;13.30;100.00;100918.05;107380;1241;60829;-72
2023/10/29 07:35:00;;;;;;;12.70;6.30;;;;;;;13.39;100.00;100924.47;107448;1248;61191;-71
2023/10/29 07:37:29;;;;;;;15.50;7.00;;;;;;;13.55;100.00;100929.27;107485;1251;73315;-72
2023/10/29 07:39:58;;;;;;;10.90;7.50;;;;;;;13.72;100.00;100928.98;107462;1241;72020;-71
2023/10/29 07:42:27;;;;;;;11.00;6.10;;;;;;;13.89;100.00;100931.26;107470;1241;71546;-71
2023/10/29 07:44:58;;;;;;;14.50;6.30;;;;;;;14.15;100.00;100927.86;107579;1238;74454;-71
2023/10/29 07:47:28;;;;;;;11.40;5.80;;;;;;;14.44;100.00;100923.28;107619;1241;60776;-71
2023/10/29 07:49:56;;;;;;;12.00;6.60;;;;;;;14.55;100.00;100920.27;107598;1244;61217;-71
2023/10/29 07:52:26;;;;;;;10.40;5.90;;;;;;;14.69;100.00;100915.53;107621;1238;74846;-71
2023/10/29 07:54:54;;;;;;;10.50;6.90;;;;;;;14.79;100.00;100908.52;107600;1244;72156;-70
2023/10/29 07:57:24;;;;;;;13.70;7.40;;;;;;;14.98;100.00;100914.77;107592;1251;69177;-71
2023/10/29 07:59:53;;;;;;;14.10;7.10;;;;;;;15.07;100.00;100915.02;107561;1242;73893;-71
2023/10/29 08:02:22;;;;;;;13.00;6.70;;;;;;;15.22;100.00;100924.77;107654;1241;58949;-71
2023/10/29 08:04:51;;;;;;;8.70;5.40;;;;;;;15.31;100.00;100937.23;107525;1249;60731;-71
2023/10/29 08:07:20;;;;;;;12.20;5.70;;;;;;;15.44;100.00;100939.98;107316;1243;74946;-72
2023/10/29 08:09:49;;;;;;;11.40;4.70;;;;;;;15.59;100.00;100942.18;107401;1238;63517;-71
2023/10/29 08:12:18;;;;;;;9.70;4.90;;;;;;;15.74;100.00;100937.86;107456;1241;70403;-71
2023/10/29 08:14:47;;;;;;;8.80;3.60;;;;;;;15.90;100.00;100934.85;107446;1238;72723;-71
2023/10/29 08:17:17;;;;;;;11.30;4.00;;;;;;;16.03;100.00;100939.95;107494;1242;61254;-71
2023/10/29 08:19:47;;;;;;;9.30;3.70;;;;;;;16.13;100.00;100938.90;107486;1241;59013;-71
2023/10/29 08:22:16;;;;;;;7.20;3.90;;;;;;;16.27;100.00;100940.58;107300;1242;63048;-72
2023/10/29 08:24:45;;;;;;;7.50;4.20;;;;;;;16.35;100.00;100935.02;107408;1242;61459;-72
2023/10/29 08:27:14;;;;;;;8.20;4.10;;;;;;;16.47;100.00;100935.30;107468;1249;69609;-71
2023/10/29 08:29:45;;;;;;;7.10;3.40;;;;;;;16.63;100.00;100933.31;107535;1238;74393;-72
2023/10/29 08:32:14;;;;;;;10.50;5.80;;;;;;;16.76;100.00;100934.46;107616;1238;61278;-71
2023/10/29 08:34:42;;;;;;;11.80;3.90;;;;;;;16.87;100.00;100934.79;107349;1240;61576;-71
2023/10/29 08:37:11;;;;;;;10.30;3.90;;;;;;;17.04;100.00;100938.09;107467;1238;73168;-71
2023/10/29 08:39:40;;;;;;;7.10;3.80;;;;;;;17.17;100.00;100940.44;107532;1248;72446;-71
2023/10/29 08:42:10;;;;;;;5.90;3.00;;;;;;;17.32;99.81;100937.98;107460;1242;70638;-71
2023/10/29 08:44:39;;;;;;;6.70;4.10;;;;;;;17.46;100.00;100941.39;107460;1238;75728;-71
2023/10/29 08:47:08;;;;;;;8.40;3.60;;;;;;;17.58;100.00;100945.45;107557;1239;60919;-70
2023/10/29 08:49:38;;;;;;;7.00;3.20;;;;;;;17.69;100.00;100949.85;107647;1251;62738;-71
2023/10/29 08:52:06;;;;;;;5.70;3.00;;;;;;;17.81;99.06;100952.27;107666;1238;74782;-74
2023/10/29 08:54:35;;;;;;;6.10;3.40;;;;;;;17.90;98.94;100956.04;107672;1238;72276;-72
2023/10/29 08:57:05;;;;;;;6.40;3.00;;;;;;;18.04;99.91;100958.17;107623;1251;70396;-72
2023/10/29 08:59:35;;;;;;;4.40;2.80;;;;;;;18.16;98.68;100959.28;107591;1241;74124;-71
2023/10/29 09:02:04;;;;;;;4.60;2.20;;;;;;;18.26;97.63;100963.55;107657;1241;57520;-72
2023/10/29 09:04:40;;;;;;;5.50;2.30;;;;;;;18.33;97.90;100965.55;107713;1242;58943;-71
2023/10/29 09:07:09;;;;;;;5.80;2.20;;;;;;;18.43;98.08;100967.99;107759;1241;63175;-73
2023/10/29 09:09:38;;;;;;;3.60;2.10;;;;;;;18.54;97.63;100967.23;107758;1238;60815;-71
2023/10/29 09:12:07;;;;;;;4.50;2.20;;;;;;;18.65;97.54;100970.60;107514;1243;68156;-75
2023/10/29 09:14:37;;;;;;;4.60;2.20;;;;;;;18.74;96.00;100973.54;107637;1249;72034;-73
2023/10/29 09:17:06;;;;;;;4.10;2.10;;;;;;;18.84;94.24;100974.11;107645;1240;60121;-76
2023/10/29 09:19:35;;;;;;;5.40;2.60;;;;;;;18.94;96.01;100974.46;107676;1242;61161;-74
2023/10/29 09:22:03;;;;;;;8.70;2.00;;;;;;;19.04;92.35;100975.00;107720;1244;65316;-73
2023/10/29 09:24:32;;;;;;;5.60;1.60;;;;;;;19.15;90.83;100970.92;107647;1249;62528;-73
2023/10/29 09:27:01;;;;;;;3.50;1.80;;;;;;;19.22;90.10;100963.95;107568;1251;59485;-74
2023/10/29 09:29:32;;;;;;;2.90;1.60;;;;;;;19.30;89.39;100963.63;107608;1242;63058;-72
2023/10/29 09:32:04;;;;;;;3.70;1.90;;;;;;;19.39;89.24;100963.29;107666;1248;59273;-73
2023/10/29 09:34:35;;;;;;;2.90;1.60;;;;;;;19.50;88.16;100962.55;107675;1238;59276;-71
2023/10/29 09:37:04;;;;;;;2.90;1.50;;;;;;;19.60;85.70;100958.89;107595;1244;73106;-71
2023/10/29 09:39:33;;;;;;;2.80;1.60;;;;;;;19.64;86.20;100956.67;107735;1238;70687;-71
2023/10/29 09:42:08;;;;;;;4.70;1.80;;;;;;;19.69;84.27;100952.98;107677;1241;71123;-71
2023/10/29 09:44:44;;;;;;;3.00;1.70;;;;;;;19.74;84.56;100953.11;107709;1251;63427;-72
2023/10/29 09:47:19;;;;;;;2.90;1.50;;;;;;;19.82;83.49;100947.13;107662;1242;57815;-72
2023/10/29 09:49:50;;;;;;;3.20;1.80;;;;;;;19.92;84.47;100950.83;107657;1242;59129;-72
2023/10/29 09:52:20;;;;;;;3.80;1.60;;;;;;;20.04;83.15;100951.09;107670;1248;62759;-70
2023/10/29 09:54:51;;;;;;;3.20;1.70;;;;;;;20.19;81.43;100951.45;107780;1244;72052;-72
2023/10/29 09:57:20;;;;;;;7.10;2.40;;;;;;;20.28;79.34;100952.58;107705;1251;59296;-72
2023/10/29 09:59:49;;;;;;;6.40;2.30;;;;;;;20.32;78.93;100957.23;107607;1251;64196;-71
2023/10/29 10:02:19;;;;;;;3.10;1.70;;;;;;;20.38;77.35;100956.09;107661;1241;60513;-72
2023/10/29 10:04:50;;;;;;;3.60;1.60;;;;;;;20.42;77.37;100952.64;107719;1238;62211;-73
2023/10/29 10:07:21;;;;;;;2.10;1.30;;;;;;;20.46;74.66;100948.40;107715;1241;63333;-73
2023/10/29 10:09:55;;;;;;;2.00;1.40;;;;;;;20.49;76.52;100948.13;107664;1241;61421;-74
2023/10/29 10:12:25;;;;;;;2.90;1.30;;;;;;;20.66;77.79;100945.70;107714;1241;59783;-72
2023/10/29 10:15:06;;;;;;;3.70;1.70;;;;;;;20.95;73.77;100943.23;107691;1242;62842;-72
2023/10/29 10:17:35;;;;;;;1.40;1.00;;;;;;;21.34;71.75;100944.21;107725;1249;62279;-72
2023/10/29 10:20:11;;;;;;;2.30;1.30;;;;;;;21.74;66.51;100942.73;107751;1242;60108;-71
2023/10/29 10:22:43;;;;;;;3.80;1.50;;;;;;;21.92;66.24;100939.52;107643;1241;72554;-71
2023/10/29 10:25:20;;;;;;;2.60;1.30;;;;;;;22.08;65.89;100943.08;107704;1241;72963;-73
2023/10/29 10:27:51;;;;;;;3.80;1.50;;;;;;;22.17;68.91;100940.86;107480;1239;70531;-71
2023/10/29 10:30:33;;;;;;;2.00;1.30;;;;;;;22.44;68.18;100944.34;107791;1251;73064;-71
2023/10/29 10:33:22;;;;;;;4.00;1.70;;;;;;;22.55;66.27;100941.30;107682;1238;58939;-73
2023/10/29 10:35:51;;;;;;;2.70;1.30;;;;;;;22.82;65.33;100942.46;107714;1241;59023;-72
2023/10/29 10:38:22;;;;;;;2.20;1.20;;;;;;;23.13;60.15;100936.48;107684;1238;73327;-71
2023/10/29 10:41:01;;;;;;;6.20;5.10;;;;;;;23.29;59.32;100939.98;107617;1242;71667;-71
2023/10/29 10:43:30;;;;;;;3.10;1.50;;;;;;;23.27;57.22;100935.88;107702;1251;70485;-73
2023/10/29 10:46:02;;;;;;;5.10;2.20;;;;;;;23.22;57.53;100933.48;107711;1249;62837;-72
2023/10/29 10:48:33;;;;;;;1.50;1.10;;;;;;;23.29;58.22;100933.16;107642;1241;58933;-72
2023/10/29 10:51:05;;;;;;;3.40;1.60;;;;;;;23.60;53.47;100931.84;107667;1239;60340;-71
2023/10/29 10:53:36;;;;;;;2.60;1.10;;;;;;;23.50;55.85;100935.22;107714;1241;62427;-72
2023/10/29 10:56:09;;;;;;;2.70;1.20;;;;;;;23.58;56.73;100936.92;107756;1238;71949;-72
2023/10/29 10:58:39;;;;;;;3.20;1.70;;;;;;;23.50;54.41;100933.45;107635;1251;59623;-72
2023/10/29 11:01:10;;;;;;;3.80;2.10;;;;;;;23.89;54.97;100935.44;107604;1251;73706;-72
2023/10/29 11:03:39;;;;;;;2.50;1.30;;;;;;;24.17;53.09;100938.48;107547;1244;59087;-73
2023/10/29 11:06:11;;;;;;;3.40;1.30;;;;;;;24.19;51.57;100935.30;107717;1242;58723;-72
2023/10/29 11:08:40;;;;;;;4.00;1.40;;;;;;;24.44;53.31;100928.42;107733;1239;72661;-73
2023/10/29 11:11:11;;;;;;;7.10;5.50;;;;;;;24.76;50.68;100926.26;107710;1238;70160;-72
2023/10/29 11:13:41;;;;;;;5.30;2.10;;;;;;;24.73;49.87;100925.95;107454;1238;70033;-72
2023/10/29 11:16:24;;;;;;;2.40;1.50;;;;;;;24.73;51.17;100922.13;107571;1242;62760;-74
2023/10/29 11:18:53;;;;;;;3.90;2.10;;;;;;;24.77;51.27;100919.27;107707;1242;59033;-74
2023/10/29 11:21:33;;;;;;;1.80;1.20;;;;;;;24.83;50.29;100917.98;107553;1239;59187;-72
2023/10/29 11:24:20;;;;;;;2.40;1.20;;;;;;;24.82;48.80;100915.80;107593;1240;62597;-72